sensor_id;sensor_type;location;lat;lon;timestamp;pressure;altitude;pressure_sealevel;temperature;humidity
52105;BME280;38103;42.776;23.112;2023-01-29T00:01:59;94021.00;;;-1.86;100.00
52105;BME280;38103;42.776;23.112;2023-01-29T00:04:24;94024.84;;;-1.91;100.00
52105;BME280;38103;42.776;23.112;2023-01-29T00:06:50;94021.63;;;-1.93;100.00
52105;BME280;38103;42.776;23.112;2023-01-29T00:09:15;94017.56;;;-1.95;100.00
52105;BME280;38103;42.776;23.112;2023-01-29T00:11:40;94030.84;;;-1.90;100.00
52105;BME280;38103;42.776;23.112;2023-01-29T00:14:06;94030.69;;;-1.97;100.00
52105;BME280;38103;42.776;23.112;2023-01-29T00:16:32;94030.50;;;-1.95;100.00
52105;BME280;38103;42.776;23.112;2023-01-29T00:18:57;94036.16;;;-2.00;100.00
52105;BME280;38103;42.776;23.112;2023-01-29T00:21:23;94030.94;;;-2.08;100.00
52105;BME280;38103;42.776;23.112;2023-01-29T00:23:49;94040.44;;;-2.17;100.00
52105;BME280;38103;42.776;23.112;2023-01-29T00:26:15;94039.69;;;-2.09;100.00
52105;BME280;38103;42.776;23.112;2023-01-29T00:28:40;94041.16;;;-2.07;100.00
52105;BME280;38103;42.776;23.112;2023-01-29T00:31:11;94049.88;;;-2.08;100.00
52105;BME280;38103;42.776;23.112;2023-01-29T00:33:37;94046.44;;;-2.17;100.00
52105;BME280;38103;42.776;23.112;2023-01-29T00:36:08;94007.13;;;-2.39;100.00
52105;BME280;38103;42.776;23.112;2023-01-29T00:38:34;94002.94;;;-2.40;100.00
52105;BME280;38103;42.776;23.112;2023-01-29T00:43:51;94020.13;;;-2.30;100.00
52105;BME280;38103;42.776;23.112;2023-01-29T00:46:35;94050.00;;;-2.18;100.00
52105;BME280;38103;42.776;23.112;2023-01-29T00:49:01;94049.41;;;-2.11;100.00
52105;BME280;38103;42.776;23.112;2023-01-29T00:51:26;94000.66;;;-2.43;100.00
52105;BME280;38103;42.776;23.112;2023-01-29T00:53:52;94048.69;;;-2.22;100.00
52105;BME280;38103;42.776;23.112;2023-01-29T00:56:25;94041.88;;;-2.23;100.00
52105;BME280;38103;42.776;23.112;2023-01-29T00:58:50;94011.41;;;-2.56;100.00
52105;BME280;38103;42.776;23.112;2023-01-29T01:01:16;94036.97;;;-2.26;100.00
52105;BME280;38103;42.776;23.112;2023-01-29T01:03:41;94040.22;;;-2.24;100.00
52105;BME280;38103;42.776;23.112;2023-01-29T01:06:09;94028.03;;;-2.32;100.00
52105;BME280;38103;42.776;23.112;2023-01-29T01:08:34;94039.75;;;-2.28;100.00
52105;BME280;38103;42.776;23.112;2023-01-29T01:11:19;94036.69;;;-2.23;100.00
52105;BME280;38103;42.776;23.112;2023-01-29T01:13:44;94022.22;;;-2.34;100.00
52105;BME280;38103;42.776;23.112;2023-01-29T01:16:11;94029.84;;;-2.32;100.00
52105;BME280;38103;42.776;23.112;2023-01-29T01:18:37;94006.44;;;-2.49;100.00
52105;BME280;38103;42.776;23.112;2023-01-29T01:21:02;94005.59;;;-2.50;100.00
52105;BME280;38103;42.776;23.112;2023-01-29T01:23:28;94032.09;;;-2.29;100.00
52105;BME280;38103;42.776;23.112;2023-01-29T01:25:53;94033.03;;;-2.39;100.00
52105;BME280;38103;42.776;23.112;2023-01-29T01:28:19;94037.63;;;-2.32;100.00
52105;BME280;38103;42.776;23.112;2023-01-29T01:30:45;94038.91;;;-2.28;100.00
52105;BME280;38103;42.776;23.112;2023-01-29T01:33:11;94040.84;;;-2.30;100.00
52105;BME280;38103;42.776;23.112;2023-01-29T01:35:37;94038.91;;;-2.28;100.00
52105;BME280;38103;42.776;23.112;2023-01-29T01:38:03;94036.34;;;-2.28;100.00
52105;BME280;38103;42.776;23.112;2023-01-29T01:40:28;94032.63;;;-2.26;100.00
52105;BME280;38103;42.776;23.112;2023-01-29T01:42:58;94036.88;;;-2.16;100.00
52105;BME280;38103;42.776;23.112;2023-01-29T01:45:31;94037.69;;;-2.16;100.00
52105;BME280;38103;42.776;23.112;2023-01-29T01:48:23;94035.75;;;-2.14;100.00
52105;BME280;38103;42.776;23.112;2023-01-29T01:51:03;94042.28;;;-2.09;100.00
52105;BME280;38103;42.776;23.112;2023-01-29T01:53:39;94044.16;;;-2.20;100.00
52105;BME280;38103;42.776;23.112;2023-01-29T01:56:12;94044.22;;;-2.11;100.00
52105;BME280;38103;42.776;23.112;2023-01-29T01:58:47;94008.97;;;-2.31;100.00
52105;BME280;38103;42.776;23.112;2023-01-29T02:01:15;93987.06;;;-2.45;100.00
52105;BME280;38103;42.776;23.112;2023-01-29T02:04:04;94037.69;;;-2.16;100.00
52105;BME280;38103;42.776;23.112;2023-01-29T02:06:49;93994.34;;;-2.40;100.00
52105;BME280;38103;42.776;23.112;2023-01-29T02:09:38;94037.69;;;-2.16;100.00
52105;BME280;38103;42.776;23.112;2023-01-29T02:12:11;94038.00;;;-2.19;100.00
52105;BME280;38103;42.776;23.112;2023-01-29T02:14:38;94021.75;;;-2.29;100.00
52105;BME280;38103;42.776;23.112;2023-01-29T02:17:10;94041.75;;;-2.13;100.00
52105;BME280;38103;42.776;23.112;2023-01-29T02:33:04;94047.25;;;-2.16;100.00
52105;BME280;38103;42.776;23.112;2023-01-29T02:35:41;94046.81;;;-2.11;100.00
52105;BME280;38103;42.776;23.112;2023-01-29T02:51:48;94061.00;;;-2.16;100.00
52105;BME280;38103;42.776;23.112;2023-01-29T02:54:20;94028.88;;;-2.31;100.00
52105;BME280;38103;42.776;23.112;2023-01-29T02:56:57;94058.41;;;-2.16;100.00
52105;BME280;38103;42.776;23.112;2023-01-29T02:59:38;94055.59;;;-2.04;100.00
52105;BME280;38103;42.776;23.112;2023-01-29T03:02:09;94017.50;;;-2.39;100.00
52105;BME280;38103;42.776;23.112;2023-01-29T03:04:41;94054.56;;;-2.11;100.00
52105;BME280;38103;42.776;23.112;2023-01-29T03:07:15;94061.06;;;-2.07;100.00
52105;BME280;38103;42.776;23.112;2023-01-29T03:09:49;94061.00;;;-2.16;100.00
52105;BME280;38103;42.776;23.112;2023-01-29T03:12:25;94039.22;;;-2.31;100.00
52105;BME280;38103;42.776;23.112;2023-01-29T03:15:10;94064.88;;;-2.20;100.00
52105;BME280;38103;42.776;23.112;2023-01-29T03:17:46;94062.88;;;-2.26;100.00
52105;BME280;38103;42.776;23.112;2023-01-29T03:20:18;94068.88;;;-2.26;100.00
52105;BME280;38103;42.776;23.112;2023-01-29T03:22:48;94067.78;;;-2.23;100.00
52105;BME280;38103;42.776;23.112;2023-01-29T03:25:17;94068.06;;;-2.26;100.00
52105;BME280;38103;42.776;23.112;2023-01-29T03:28:03;94070.63;;;-2.34;100.00
52105;BME280;38103;42.776;23.112;2023-01-29T03:31:02;94067.06;;;-2.33;100.00
52105;BME280;38103;42.776;23.112;2023-01-29T03:33:53;94038.41;;;-2.59;100.00
52105;BME280;38103;42.776;23.112;2023-01-29T03:36:31;94078.72;;;-2.29;100.00
52105;BME280;38103;42.776;23.112;2023-01-29T03:39:06;94073.53;;;-2.29;100.00
52105;BME280;38103;42.776;23.112;2023-01-29T03:42:04;94061.28;;;-2.27;100.00
52105;BME280;38103;42.776;23.112;2023-01-29T03:47:23;94066.59;;;-2.29;100.00
52105;BME280;38103;42.776;23.112;2023-01-29T03:49:56;94062.28;;;-2.20;100.00
52105;BME280;38103;42.776;23.112;2023-01-29T03:55:32;94067.16;;;-2.17;100.00
52105;BME280;38103;42.776;23.112;2023-01-29T03:57:59;94072.03;;;-2.14;100.00
52105;BME280;38103;42.776;23.112;2023-01-29T04:00:31;94052.88;;;-2.21;100.00
52105;BME280;38103;42.776;23.112;2023-01-29T04:03:07;94069.31;;;-2.12;100.00
52105;BME280;38103;42.776;23.112;2023-01-29T04:05:42;94071.72;;;-2.10;100.00
52105;BME280;38103;42.776;23.112;2023-01-29T04:08:13;94079.03;;;-2.06;100.00
52105;BME280;38103;42.776;23.112;2023-01-29T04:10:42;94075.03;;;-2.00;100.00
52105;BME280;38103;42.776;23.112;2023-01-29T04:13:10;94076.19;;;-1.94;100.00
52105;BME280;38103;42.776;23.112;2023-01-29T04:15:42;94078.97;;;-1.87;100.00
52105;BME280;38103;42.776;23.112;2023-01-29T04:18:10;94081.25;;;-1.84;100.00
52105;BME280;38103;42.776;23.112;2023-01-29T04:20:36;94075.78;;;-1.81;100.00
52105;BME280;38103;42.776;23.112;2023-01-29T04:23:01;94081.25;;;-1.84;100.00
52105;BME280;38103;42.776;23.112;2023-01-29T04:25:36;94084.81;;;-1.85;100.00
52105;BME280;38103;42.776;23.112;2023-01-29T04:28:17;94085.63;;;-1.85;100.00
52105;BME280;38103;42.776;23.112;2023-01-29T04:30:56;94081.09;;;-1.91;100.00
52105;BME280;38103;42.776;23.112;2023-01-29T04:33:33;94080.56;;;-1.95;100.00
52105;BME280;38103;42.776;23.112;2023-01-29T04:41:14;94074.84;;;-1.98;100.00
52105;BME280;38103;42.776;23.112;2023-01-29T04:44:06;94086.09;;;-1.89;100.00
52105;BME280;38103;42.776;23.112;2023-01-29T04:46:51;94035.06;;;-2.24;100.00
52105;BME280;38103;42.776;23.112;2023-01-29T04:54:53;94088.38;;;-1.86;100.00
52105;BME280;38103;42.776;23.112;2023-01-29T05:00:16;94099.06;;;-1.89;100.00
52105;BME280;38103;42.776;23.112;2023-01-29T05:02:43;94082.44;;;-2.05;100.00
52105;BME280;38103;42.776;23.112;2023-01-29T05:05:10;94100.69;;;-1.88;100.00
52105;BME280;38103;42.776;23.112;2023-01-29T05:07:38;94101.69;;;-1.81;100.00
52105;BME280;38103;42.776;23.112;2023-01-29T05:10:06;94093.88;;;-1.89;100.00
52105;BME280;38103;42.776;23.112;2023-01-29T05:12:32;94101.00;;;-1.92;100.00
52105;BME280;38103;42.776;23.112;2023-01-29T05:15:01;94105.34;;;-1.92;100.00
52105;BME280;38103;42.776;23.112;2023-01-29T05:17:27;94106.78;;;-1.98;100.00
52105;BME280;38103;42.776;23.112;2023-01-29T05:19:54;94100.94;;;-2.00;100.00
52105;BME280;38103;42.776;23.112;2023-01-29T05:22:20;94098.34;;;-2.00;100.00
52105;BME280;38103;42.776;23.112;2023-01-29T05:24:48;94045.31;;;-2.41;100.00
52105;BME280;38103;42.776;23.112;2023-01-29T05:27:19;94106.47;;;-1.95;100.00
52105;BME280;38103;42.776;23.112;2023-01-29T05:30:04;94108.09;;;-1.94;100.00
52105;BME280;38103;42.776;23.112;2023-01-29T05:32:29;94110.84;;;-1.95;100.00
52105;BME280;38103;42.776;23.112;2023-01-29T05:34:55;94112.94;;;-1.99;100.00
52105;BME280;38103;42.776;23.112;2023-01-29T05:37:20;94115.19;;;-1.96;100.00
52105;BME280;38103;42.776;23.112;2023-01-29T05:39:45;94071.41;;;-2.34;100.00
52105;BME280;38103;42.776;23.112;2023-01-29T05:42:11;94122.31;;;-1.98;100.00
52105;BME280;38103;42.776;23.112;2023-01-29T05:44:36;94125.56;;;-1.96;100.00
52105;BME280;38103;42.776;23.112;2023-01-29T05:47:02;94084.94;;;-2.22;100.00
52105;BME280;38103;42.776;23.112;2023-01-29T05:49:27;94122.66;;;-2.01;100.00
52105;BME280;38103;42.776;23.112;2023-01-29T05:51:53;94124.09;;;-1.98;100.00
52105;BME280;38103;42.776;23.112;2023-01-29T05:54:18;94129.28;;;-1.98;100.00
52105;BME280;38103;42.776;23.112;2023-01-29T05:56:43;94135.25;;;-2.06;100.00
52105;BME280;38103;42.776;23.112;2023-01-29T05:59:09;94137.75;;;-2.15;100.00
52105;BME280;38103;42.776;23.112;2023-01-29T06:01:34;94144.25;;;-2.10;100.00
52105;BME280;38103;42.776;23.112;2023-01-29T06:03:59;94143.75;;;-2.14;100.00
52105;BME280;38103;42.776;23.112;2023-01-29T06:06:25;94147.50;;;-2.08;100.00
52105;BME280;38103;42.776;23.112;2023-01-29T06:08:51;94147.50;;;-2.08;100.00
52105;BME280;38103;42.776;23.112;2023-01-29T06:11:16;94147.50;;;-2.08;100.00
52105;BME280;38103;42.776;23.112;2023-01-29T06:13:43;94159.81;;;-2.10;100.00
52105;BME280;38103;42.776;23.112;2023-01-29T06:16:10;94161.16;;;-2.06;100.00
52105;BME280;38103;42.776;23.112;2023-01-29T06:18:37;94155.00;;;-2.05;100.00
52105;BME280;38103;42.776;23.112;2023-01-29T06:21:04;94161.44;;;-2.09;100.00
52105;BME280;38103;42.776;23.112;2023-01-29T06:23:30;94168.91;;;-2.06;100.00
52105;BME280;38103;42.776;23.112;2023-01-29T06:26:03;94173.75;;;-2.11;100.00
52105;BME280;38103;42.776;23.112;2023-01-29T06:28:29;94166.00;;;-2.03;100.00
52105;BME280;38103;42.776;23.112;2023-01-29T06:31:01;94169.56;;;-2.04;100.00
52105;BME280;38103;42.776;23.112;2023-01-29T06:33:27;94151.47;;;-2.22;100.00
52105;BME280;38103;42.776;23.112;2023-01-29T06:36:01;94178.31;;;-2.05;100.00
52105;BME280;38103;42.776;23.112;2023-01-29T06:38:27;94126.91;;;-2.37;100.00
52105;BME280;38103;42.776;23.112;2023-01-29T06:40:53;94185.34;;;-2.16;100.00
52105;BME280;38103;42.776;23.112;2023-01-29T06:43:19;94180.69;;;-2.12;100.00
52105;BME280;38103;42.776;23.112;2023-01-29T06:45:53;94183.28;;;-2.12;100.00
52105;BME280;38103;42.776;23.112;2023-01-29T06:48:19;94180.16;;;-2.16;100.00
52105;BME280;38103;42.776;23.112;2023-01-29T06:50:45;94183.41;;;-2.14;100.00
52105;BME280;38103;42.776;23.112;2023-01-29T06:53:11;94192.53;;;-2.09;100.00
52105;BME280;38103;42.776;23.112;2023-01-29T06:55:36;94180.31;;;-2.17;100.00
52105;BME280;38103;42.776;23.112;2023-01-29T06:58:06;94195.78;;;-2.07;100.00
52105;BME280;38103;42.776;23.112;2023-01-29T07:00:33;94198.38;;;-2.07;100.00
52105;BME280;38103;42.776;23.112;2023-01-29T07:02:59;94190.97;;;-2.02;100.00
52105;BME280;38103;42.776;23.112;2023-01-29T07:05:24;94197.63;;;-1.99;100.00
52105;BME280;38103;42.776;23.112;2023-01-29T07:07:49;94194.75;;;-1.96;100.00
52105;BME280;38103;42.776;23.112;2023-01-29T07:10:15;94197.97;;;-1.94;100.00
52105;BME280;38103;42.776;23.112;2023-01-29T07:12:41;94203.63;;;-1.99;100.00
52105;BME280;38103;42.776;23.112;2023-01-29T07:15:06;94203.91;;;-2.02;100.00
52105;BME280;38103;42.776;23.112;2023-01-29T07:17:32;94201.69;;;-1.97;100.00
52105;BME280;38103;42.776;23.112;2023-01-29T07:19:57;94207.16;;;-2.00;100.00
52105;BME280;38103;42.776;23.112;2023-01-29T07:22:23;94212.06;;;-1.97;100.00
52105;BME280;38103;42.776;23.112;2023-01-29T07:24:48;94214.50;;;-1.95;100.00
52105;BME280;38103;42.776;23.112;2023-01-29T07:27:13;94186.69;;;-2.11;100.00
52105;BME280;38103;42.776;23.112;2023-01-29T07:29:39;94218.56;;;-1.93;100.00
52105;BME280;38103;42.776;23.112;2023-01-29T07:32:04;94209.53;;;-1.88;100.00
52105;BME280;38103;42.776;23.112;2023-01-29T07:34:29;94214.41;;;-1.85;100.00
52105;BME280;38103;42.776;23.112;2023-01-29T07:36:55;94219.56;;;-1.85;100.00
52105;BME280;38103;42.776;23.112;2023-01-29T07:39:21;94211.50;;;-1.82;100.00
52105;BME280;38103;42.776;23.112;2023-01-29T07:41:47;94175.63;;;-2.14;100.00
52105;BME280;38103;42.776;23.112;2023-01-29T07:44:12;94217.66;;;-1.83;100.00
52105;BME280;38103;42.776;23.112;2023-01-29T07:46:37;94199.75;;;-1.95;100.00
52105;BME280;38103;42.776;23.112;2023-01-29T07:49:03;94221.81;;;-1.91;100.00
52105;BME280;38103;42.776;23.112;2023-01-29T07:51:28;94223.75;;;-1.93;100.00
52105;BME280;38103;42.776;23.112;2023-01-29T07:53:53;94227.59;;;-1.97;100.00
52105;BME280;38103;42.776;23.112;2023-01-29T07:56:19;94230.41;;;-1.90;100.00
52105;BME280;38103;42.776;23.112;2023-01-29T07:58:44;94223.44;;;-1.89;100.00
52105;BME280;38103;42.776;23.112;2023-01-29T08:01:09;94229.16;;;-1.86;100.00
52105;BME280;38103;42.776;23.112;2023-01-29T08:03:35;94226.41;;;-1.84;100.00
52105;BME280;38103;42.776;23.112;2023-01-29T08:06:02;94231.59;;;-1.84;100.00
52105;BME280;38103;42.776;23.112;2023-01-29T08:08:28;94238.16;;;-1.72;100.00
52105;BME280;38103;42.776;23.112;2023-01-29T08:10:53;94242.09;;;-1.67;100.00
52105;BME280;38103;42.776;23.112;2023-01-29T08:13:19;94236.22;;;-1.70;100.00
52105;BME280;38103;42.776;23.112;2023-01-29T08:15:44;94237.19;;;-1.71;100.00
52105;BME280;38103;42.776;23.112;2023-01-29T08:18:11;94235.16;;;-1.59;100.00
52105;BME280;38103;42.776;23.112;2023-01-29T08:20:37;94199.53;;;-1.83;100.00
52105;BME280;38103;42.776;23.112;2023-01-29T08:23:05;94247.31;;;-1.59;100.00
52105;BME280;38103;42.776;23.112;2023-01-29T08:25:31;94254.28;;;-1.60;100.00
52105;BME280;38103;42.776;23.112;2023-01-29T08:27:57;94249.19;;;-1.70;100.00
52105;BME280;38103;42.776;23.112;2023-01-29T08:30:27;94239.44;;;-1.76;100.00
52105;BME280;38103;42.776;23.112;2023-01-29T08:32:53;94254.38;;;-1.70;100.00
52105;BME280;38103;42.776;23.112;2023-01-29T08:35:19;94247.88;;;-1.74;100.00
52105;BME280;38103;42.776;23.112;2023-01-29T08:37:57;94256.28;;;-1.72;100.00
52105;BME280;38103;42.776;23.112;2023-01-29T08:40:24;94258.97;;;-1.63;100.00
52105;BME280;38103;42.776;23.112;2023-01-29T08:42:50;94261.69;;;-1.65;100.00
52105;BME280;38103;42.776;23.112;2023-01-29T08:45:15;94259.25;;;-1.66;100.00
52105;BME280;38103;42.776;23.112;2023-01-29T08:47:48;94260.28;;;-1.59;100.00
52105;BME280;38103;42.776;23.112;2023-01-29T08:50:14;94258.66;;;-1.60;100.00
52105;BME280;38103;42.776;23.112;2023-01-29T08:52:41;94231.28;;;-1.81;100.00
52105;BME280;38103;42.776;23.112;2023-01-29T08:55:07;94268.41;;;-1.54;100.00
52105;BME280;38103;42.776;23.112;2023-01-29T08:57:32;94261.91;;;-1.58;100.00
52105;BME280;38103;42.776;23.112;2023-01-29T08:59:58;94274.50;;;-1.63;100.00
52105;BME280;38103;42.776;23.112;2023-01-29T09:02:23;94273.50;;;-1.71;100.00
52105;BME280;38103;42.776;23.112;2023-01-29T09:04:48;94274.50;;;-1.63;100.00
52105;BME280;38103;42.776;23.112;2023-01-29T09:07:14;94270.66;;;-1.59;100.00
52105;BME280;38103;42.776;23.112;2023-01-29T09:09:39;94270.66;;;-1.59;100.00
52105;BME280;38103;42.776;23.112;2023-01-29T09:12:05;94263.53;;;-1.57;100.00
52105;BME280;38103;42.776;23.112;2023-01-29T09:14:30;94270.06;;;-1.53;100.00
52105;BME280;38103;42.776;23.112;2023-01-29T09:16:57;94274.94;;;-1.50;100.00
52105;BME280;38103;42.776;23.112;2023-01-29T09:19:22;94273.47;;;-1.52;100.00
52105;BME280;38103;42.776;23.112;2023-01-29T09:21:48;94273.00;;;-1.48;100.00
52105;BME280;38103;42.776;23.112;2023-01-29T09:24:14;94252.13;;;-1.64;100.00
52105;BME280;38103;42.776;23.112;2023-01-29T09:26:39;94266.44;;;-1.60;100.00
52105;BME280;38103;42.776;23.112;2023-01-29T09:29:05;94262.22;;;-1.61;100.00
52105;BME280;38103;42.776;23.112;2023-01-29T09:31:30;94275.25;;;-1.53;100.00
52105;BME280;38103;42.776;23.112;2023-01-29T09:33:56;94270.53;;;-1.49;100.00
52105;BME280;38103;42.776;23.112;2023-01-29T09:36:21;94262.94;;;-1.51;100.00
52105;BME280;38103;42.776;23.112;2023-01-29T09:38:46;94269.44;;;-1.47;100.00
52105;BME280;38103;42.776;23.112;2023-01-29T09:46:40;94256.53;;;-1.38;100.00
52105;BME280;38103;42.776;23.112;2023-01-29T09:49:34;94266.44;;;-1.33;100.00
52105;BME280;38103;42.776;23.112;2023-01-29T09:52:07;94263.72;;;-1.32;100.00
52105;BME280;38103;42.776;23.112;2023-01-29T09:57:48;94261.72;;;-1.38;100.00
52105;BME280;38103;42.776;23.112;2023-01-29T10:00:22;94260.09;;;-1.39;100.00
52105;BME280;38103;42.776;23.112;2023-01-29T10:25:45;94230.81;;;-1.58;100.00
52105;BME280;38103;42.776;23.112;2023-01-29T10:28:19;94233.22;;;-1.57;100.00
52105;BME280;38103;42.776;23.112;2023-01-29T10:30:50;94231.81;;;-1.51;100.00
52105;BME280;38103;42.776;23.112;2023-01-29T10:33:44;94235.06;;;-1.49;100.00
52105;BME280;38103;42.776;23.112;2023-01-29T10:36:17;94230.41;;;-1.45;100.00
52105;BME280;38103;42.776;23.112;2023-01-29T10:38:46;94230.69;;;-1.48;100.00
52105;BME280;38103;42.776;23.112;2023-01-29T10:46:50;94240.53;;;-1.52;100.00
52105;BME280;38103;42.776;23.112;2023-01-29T10:50:14;94226.31;;;-1.48;100.00
52105;BME280;38103;42.776;23.112;2023-01-29T10:55:36;94232.47;;;-1.49;100.00
52105;BME280;38103;42.776;23.112;2023-01-29T10:58:20;94231.09;;;-1.35;100.00
52105;BME280;38103;42.776;23.112;2023-01-29T11:00:50;94229.00;;;-1.31;100.00
52105;BME280;38103;42.776;23.112;2023-01-29T11:03:27;94224.81;;;-1.32;100.00
52105;BME280;38103;42.776;23.112;2023-01-29T11:06:23;94212.47;;;-1.30;100.00
52105;BME280;38103;42.776;23.112;2023-01-29T11:08:54;94215.72;;;-1.28;100.00
52105;BME280;38103;42.776;23.112;2023-01-29T11:11:32;94217.38;;;-1.27;100.00
52105;BME280;38103;42.776;23.112;2023-01-29T11:14:04;94212.19;;;-1.27;100.00
52105;BME280;38103;42.776;23.112;2023-01-29T11:16:44;94206.06;;;-1.17;100.00
52105;BME280;38103;42.776;23.112;2023-01-29T11:19:11;94146.50;;;-1.62;100.00
52105;BME280;38103;42.776;23.112;2023-01-29T11:21:57;94203.41;;;-1.26;100.00
52105;BME280;38103;42.776;23.112;2023-01-29T11:24:24;94199.22;;;-1.18;100.00
52105;BME280;38103;42.776;23.112;2023-01-29T11:26:51;94205.75;;;-1.14;100.00
52105;BME280;38103;42.776;23.112;2023-01-29T11:31:55;94191.84;;;-1.05;100.00
52105;BME280;38103;42.776;23.112;2023-01-29T11:34:23;94191.19;;;-1.07;100.00
52105;BME280;38103;42.776;23.112;2023-01-29T11:37:00;94183.44;;;-0.98;100.00
52105;BME280;38103;42.776;23.112;2023-01-29T11:39:27;94178.25;;;-0.90;100.00
52105;BME280;38103;42.776;23.112;2023-01-29T11:42:01;94170.19;;;-0.79;100.00
52105;BME280;38103;42.776;23.112;2023-01-29T11:46:53;94173.09;;;-0.82;100.00
52105;BME280;38103;42.776;23.112;2023-01-29T11:49:31;94141.25;;;-1.00;100.00
52105;BME280;38103;42.776;23.112;2023-01-29T11:52:00;94171.78;;;-0.86;100.00
52105;BME280;38103;42.776;23.112;2023-01-29T11:54:31;94174.06;;;-0.91;100.00
52105;BME280;38103;42.776;23.112;2023-01-29T11:56:58;94142.53;;;-1.05;100.00
52105;BME280;38103;42.776;23.112;2023-01-29T11:59:38;94167.28;;;-0.75;100.00
52105;BME280;38103;42.776;23.112;2023-01-29T12:04:41;94158.84;;;-0.77;100.00
52105;BME280;38103;42.776;23.112;2023-01-29T12:07:11;94157.84;;;-0.76;100.00
52105;BME280;38103;42.776;23.112;2023-01-29T12:09:38;94164.69;;;-0.75;100.00
52105;BME280;38103;42.776;23.112;2023-01-29T12:12:25;94164.72;;;-0.67;100.00
52105;BME280;38103;42.776;23.112;2023-01-29T12:15:13;94149.59;;;-0.63;100.00
52105;BME280;38103;42.776;23.112;2023-01-29T12:17:44;94119.88;;;-0.86;100.00
52105;BME280;38103;42.776;23.112;2023-01-29T12:20:17;94162.09;;;-0.59;100.00
52105;BME280;38103;42.776;23.112;2023-01-29T12:36:26;94169.56;;;-0.64;100.00
52105;BME280;38103;42.776;23.112;2023-01-29T12:38:53;94175.41;;;-0.70;100.00
52105;BME280;38103;42.776;23.112;2023-01-29T12:41:42;94170.06;;;-0.60;100.00
52105;BME280;38103;42.776;23.112;2023-01-29T12:44:14;94130.56;;;-0.89;100.00
52105;BME280;38103;42.776;23.112;2023-01-29T12:46:49;94166.16;;;-0.56;100.00
52105;BME280;38103;42.776;23.112;2023-01-29T12:49:32;94130.13;;;-0.76;100.00
52105;BME280;38103;42.776;23.112;2023-01-29T12:52:09;94172.81;;;-0.62;100.00
52105;BME280;38103;42.776;23.112;2023-01-29T12:54:41;94167.94;;;-0.65;100.00
52105;BME280;38103;42.776;23.112;2023-01-29T12:58:03;94166.63;;;-0.69;100.00
52105;BME280;38103;42.776;23.112;2023-01-29T13:00:15;94153.66;;;-0.61;100.00
52105;BME280;38103;42.776;23.112;2023-01-29T13:02:48;94158.25;;;-0.54;100.00
52105;BME280;38103;42.776;23.112;2023-01-29T13:08:29;94119.75;;;-0.68;100.00
52105;BME280;38103;42.776;23.112;2023-01-29T13:10:53;94161.47;;;-0.36;100.00
52105;BME280;38103;42.776;23.112;2023-01-29T13:13:26;94164.09;;;-0.44;100.00
52105;BME280;38103;42.776;23.112;2023-01-29T13:15:55;94171.38;;;-0.48;100.00
52105;BME280;38103;42.776;23.112;2023-01-29T13:18:39;94170.22;;;-0.53;100.00
52105;BME280;38103;42.776;23.112;2023-01-29T13:21:10;94171.88;;;-0.52;100.00
52105;BME280;38103;42.776;23.112;2023-01-29T13:23:43;94160.63;;;-0.61;100.00
52105;BME280;38103;42.776;23.112;2023-01-29T13:26:11;94174.13;;;-0.58;100.00
52105;BME280;38103;42.776;23.112;2023-01-29T13:28:38;94185.81;;;-0.53;100.00
52105;BME280;38103;42.776;23.112;2023-01-29T13:31:10;94184.53;;;-0.58;100.00
52105;BME280;38103;42.776;23.112;2023-01-29T13:33:37;94187.41;;;-0.69;100.00
52105;BME280;38103;42.776;23.112;2023-01-29T13:36:13;94188.66;;;-0.82;100.00
52105;BME280;38103;42.776;23.112;2023-01-29T13:38:41;94180.22;;;-0.84;100.00
52105;BME280;38103;42.776;23.112;2023-01-29T13:41:09;94184.13;;;-0.88;100.00
52105;BME280;38103;42.776;23.112;2023-01-29T13:43:40;94191.88;;;-0.96;100.00
52105;BME280;38103;42.776;23.112;2023-01-29T13:46:15;94189.88;;;-1.03;100.00
52105;BME280;38103;42.776;23.112;2023-01-29T13:48:48;94188.84;;;-1.18;100.00
52105;BME280;38103;42.776;23.112;2023-01-29T13:51:21;94204.75;;;-1.21;100.00
52105;BME280;38103;42.776;23.112;2023-01-29T13:53:59;94194.38;;;-1.21;100.00
52105;BME280;38103;42.776;23.112;2023-01-29T13:58:57;94209.00;;;-1.12;100.00
52105;BME280;38103;42.776;23.112;2023-01-29T14:06:45;94179.00;;;-1.41;100.00
52105;BME280;38103;42.776;23.112;2023-01-29T14:11:54;94222.41;;;-1.25;100.00
52105;BME280;38103;42.776;23.112;2023-01-29T14:17:14;94223.25;;;-1.16;100.00
52105;BME280;38103;42.776;23.112;2023-01-29T14:19:50;94224.56;;;-1.12;100.00
52105;BME280;38103;42.776;23.112;2023-01-29T14:22:21;94226.16;;;-1.19;100.00
52105;BME280;38103;42.776;23.112;2023-01-29T14:24:52;94221.81;;;-1.10;100.00
52105;BME280;38103;42.776;23.112;2023-01-29T14:27:20;94190.03;;;-1.48;100.00
52105;BME280;38103;42.776;23.112;2023-01-29T14:29:47;94228.44;;;-1.16;100.00
52105;BME280;38103;42.776;23.112;2023-01-29T14:32:21;94236.72;;;-1.13;100.00
52105;BME280;38103;42.776;23.112;2023-01-29T14:34:49;94230.69;;;-1.21;100.00
52105;BME280;38103;42.776;23.112;2023-01-29T14:39:55;94234.53;;;-1.34;100.00
52105;BME280;38103;42.776;23.112;2023-01-29T14:42:38;94223.81;;;-1.31;100.00
52105;BME280;38103;42.776;23.112;2023-01-29T14:45:32;94226.09;;;-1.28;100.00
52105;BME280;38103;42.776;23.112;2023-01-29T14:58:17;94227.81;;;-1.10;100.00
52105;BME280;38103;42.776;23.112;2023-01-29T15:00:49;94235.34;;;-0.98;100.00
52105;BME280;38103;42.776;23.112;2023-01-29T15:03:28;94236.94;;;-0.97;100.00
52105;BME280;38103;42.776;23.112;2023-01-29T15:05:58;94233.41;;;-0.96;100.00
52105;BME280;38103;42.776;23.112;2023-01-29T15:08:28;94220.78;;;-0.91;100.00
52105;BME280;38103;42.776;23.112;2023-01-29T15:11:04;94234.44;;;-0.81;100.00
52105;BME280;38103;42.776;23.112;2023-01-29T15:14:04;94224.00;;;-0.89;100.00
52105;BME280;38103;42.776;23.112;2023-01-29T15:17:13;94237.34;;;-0.84;100.00
52105;BME280;38103;42.776;23.112;2023-01-29T15:19:44;94238.66;;;-0.80;100.00